Nicola Silvestri

Chefscout - Fiorentina
10 Apr 2029
Dienstag
Verarbeitung

Persönlichkeit

Anpassungsfähigkeit (6) Ehrgeiz (12) Kontroverse (15) Loyalität (20) Druck (4) Professionalität (11) Fairness (17) Temperament (18)

Profil

Trainerstil Demokratisch
Lizenz Kontinentale A
Entschlossenheit 12
Menschenführung 14
Motivation 13
Disziplin 13
Arbeitszufriedenheit
100%
Ermüdung
0%
Rolle Chefscout
Gehalt 114.4K p/W
Vertrag 14.03.2030

Leistung

Verhalten Gut
Trainingseffektivität
51%
Spielerentwicklung
65%
Verletzungsprävention
75%
Taktische Umsetzung
45%

Aktuell beobachtet

133
Spieler Verein Status Fähigkeit Vertrauen Beobachtet Zuletzt beobachtet Letzte Stimme
Lewis Miley Newcastle United Aktiv 158 / 154 40% 2 22.01.2029 -
Quilindschy Hartman Burnley Aktiv 150 / 155 40% 2 22.01.2029 -
Neco Williams Nottingham Forest Aktiv 150 / 156 40% 1 22.01.2029 -
Mads Hermansen West Ham United Aktiv 146 / 154 40% 3 15.01.2029 -
Tommaso Martinelli Torino Aktiv 141 / 147 40% 1 15.01.2029 -
Caoimhin Kelleher Brentford Aktiv 158 / 160 40% 1 15.01.2029 -
Jake O'Brien Everton Aktiv 158 / 144 40% 2 08.01.2029 -
Tino Livramento Newcastle United Aktiv 170 / 164 40% 2 08.01.2029 -
Murillo Nottingham Forest Aktiv 161 / 160 40% 1 08.01.2029 -
Lewis Hall Newcastle United Aktiv 158 / 152 40% 2 07.01.2029 -
Miloš Kerkez Liverpool Aktiv 165 / 174 40% 2 07.01.2029 -
Jesús Vázquez Valencia Aktiv 150 / 146 40% 1 07.01.2029 -
Pape Matar Sarr Luton Town Aktiv 152 / 154 40% 2 06.01.2029 -
Yehor Yarmoliuk Brentford Aktiv 162 / 153 40% 1 06.01.2029 -
Adam Wharton Crystal Palace Aktiv 169 / 173 40% 1 06.01.2029 -
Ousmane Diomande Leeds United Aktiv 163 / 155 40% 1 06.01.2029 -
Enzo Fernández Chelsea Aktiv 174 / 177 40% 1 04.01.2029 -
Ryan Gravenberch Liverpool Aktiv 169 / 162 40% 1 04.01.2029 -
Álex Jiménez Bournemouth Aktiv 156 / 167 40% 1 04.01.2029 -
Jack Hinshelwood Brighton Aktiv 158 / 165 40% 2 02.01.2029 -
Kenneth Taylor Udinese Aktiv 158 / 147 40% 1 02.01.2029 -
James Trafford Leeds United Aktiv 160 / 159 40% 26 01.01.2029 -
Juan David Arizala Udinese Aktiv 133 / 131 76% 1 01.01.2029 Befürworten
Kaye Furo Brentford Aktiv 130 / 126 40% 2 28.08.2028 -
Filippo Scotti AC Milan Aktiv 107 / 108 40% 2 28.08.2028 -
Arman Durmiši Juventus Aktiv 113 / 120 40% 1 28.08.2028 -
Jorrel Hato Chelsea Aktiv 152 / 164 40% 3 26.08.2028 -
Jérémy Jacquet Blackburn Rovers Aktiv 151 / 147 40% 1 26.08.2028 -
Dastan Sätpayev Chelsea Aktiv 141 / 141 40% 2 14.08.2028 -
Luca Williams-Barnett Tottenham Aktiv 127 / 142 40% 3 14.08.2028 -
Quentin Ndjantou Paris Saint-Germain Aktiv 129 / 134 40% 1 14.08.2028 -
Caleb Yirenkyi Coventry City Aktiv 147 / 150 40% 1 07.08.2028 -
Darryl Bakola Sassuolo Aktiv 119 / 127 40% 2 02.08.2028 -
Miguel Figueiredo Benfica Aktiv 120 / 124 40% 5 01.08.2028 -
Josh King Fulham Aktiv 149 / 144 40% 5 01.08.2028 -
Rafael Mota Sporting CP Aktiv 116 / 130 40% 3 01.08.2028 -
Jorthy Mokio Ajax Aktiv 140 / 145 40% 5 31.07.2028 -
Rhys Chadwick Peterborough United Aktiv 105 / 119 40% 1 31.07.2028 -
Jan Bürger Burton Albion Aktiv 126 / 121 40% 6 30.07.2028 -
Harry Amass Manchester United Aktiv 146 / 141 40% 2 30.07.2028 -
Sergio Martínez Valladolid Aktiv 119 / 119 40% 1 30.07.2028 -
Abubacarr Sedi Kinteh Al-Khaleej Aktiv 138 / 138 40% 3 29.07.2028 -
Harrison Armstrong Bournemouth Aktiv 136 / 147 40% 1 29.07.2028 -
Sascha Britschgi Udinese Aktiv 121 / 134 40% 2 26.07.2028 -
Matías Magdaleno Estudiantes Aktiv 110 / 110 40% 1 26.07.2028 -
Bernardo Lima Porto Aktiv 117 / 127 40% 4 24.07.2028 -
Fabio Rispoli Como Aktiv 127 / 119 40% 1 24.07.2028 -
Peyton Miller FC Cincinnati Aktiv 121 / 132 40% 1 23.07.2028 -
Mihail Polendakov Sheffield United Aktiv 106 / 121 40% 1 22.07.2028 -
Kai Andrews Leeds United Aktiv 116 / 132 40% 2 20.07.2028 -
Joane Gadou Borussia Dortmund Aktiv 138 / 149 40% 1 20.07.2028 -
Agustín Medina River Plate Aktiv 114 / 124 40% 3 19.07.2028 -
Pape Cabral Monaco Aktiv 125 / 132 40% 3 19.07.2028 -
Ayyoub Bouaddi West Bromwich Albion Aktiv 148 / 157 40% 1 19.07.2028 -
Josh Stephenson Bristol City Aktiv 116 / 134 40% 1 16.07.2028 -
Adem Avdić TSC Aktiv 104 / 120 40% 1 15.07.2028 -
Zahir Ibarra Eibar Aktiv 106 / 106 40% 3 11.07.2028 -
Moses Sesay Southampton Aktiv 116 / 116 40% 1 11.07.2028 -
Matteo Palma Udinese Aktiv 129 / 146 40% 1 11.07.2028 -
Trey Nyoni Liverpool Aktiv 144 / 149 40% 2 07.07.2028 -
Giovanni Leoni Liverpool Aktiv 140 / 150 40% 1 07.07.2028 -
Thijs Kraaijeveld Feyenoord Aktiv 122 / 120 40% 1 06.07.2028 -
Martim Cunha Porto Aktiv 113 / 123 40% 3 05.07.2028 -
Daniel Banjaqui Benfica Aktiv 125 / 122 40% 3 05.07.2028 -
Ayden Heaven Manchester United Aktiv 151 / 156 40% 2 01.07.2028 -
Elvis van der Laan Groningen Aktiv 110 / 123 40% 1 01.07.2028 -
Lovre Kulušić Dinamo Zagreb Aktiv 107 / 126 40% 2 27.06.2028 -
George Ilenikhena Al-Ittihad Aktiv 135 / 120 40% 1 27.06.2028 -
Julián Vignolo Toulouse FC Aktiv 119 / 125 40% 1 27.06.2028 -
Mattia Mannini Juve Stabia Aktiv 123 / 117 40% 3 26.06.2028 -
Julian Hall Austin FC Aktiv 101 / 105 40% 3 24.06.2028 -
Shane Nti Chesterfield Aktiv 109 / 112 40% 1 24.06.2028 -
Babis Kostoulas Manchester City Aktiv 145 / 151 40% 2 23.06.2028 -
Rémi Himbert OGC Nice Aktiv 114 / 125 40% 3 22.06.2028 -
Nicolas Verkooijen PSV Aktiv 119 / 116 40% 2 21.06.2028 -
Mohamed Meïté Tottenham Aktiv 131 / 148 40% 3 20.06.2028 -
Jake Evans Huddersfield Town Aktiv 110 / 125 40% 2 20.06.2028 -
Matías Acevedo Racing Club Aktiv 113 / 130 40% 2 14.06.2028 -
Jonah Kusi-Asare Fulham Aktiv 122 / 131 40% 2 12.06.2028 -
Malte Heyde Esbjerg Aktiv 106 / 132 40% 1 10.06.2028 -
Pau Cubarsí Barcelona Aktiv 165 / 159 40% 1 06.06.2028 -
Bento Al-Nassr Aktiv 147 / 160 40% 4 05.06.2028 -
Sebastiano Desplanches Everton Aktiv 140 / 154 40% 1 05.06.2028 -
Igor Tyjon Blackburn Rovers Aktiv 113 / 128 40% 1 05.06.2028 -
Otto Stange Hamburger SV Aktiv 129 / 131 40% 1 05.06.2028 -
Arijanet Murić Sassuolo Aktiv 146 / 154 40% 3 04.06.2028 -
Maduka Okoye Udinese Aktiv 147 / 146 40% 1 04.06.2028 -
Mile Svilar AS Roma Aktiv 166 / 171 40% 1 04.06.2028 -
Jamie Cumming Sunderland Aktiv 137 / 139 40% 1 04.06.2028 -
Aaron Ramsdale Southampton Aktiv 154 / 157 40% 1 02.06.2028 -
Juan Giménez Rosario Central Aktiv 123 / 128 40% 1 31.01.2028 -
Bradel Kiwa Monaco Aktiv 121 / 126 40% 2 30.01.2028 -
Felipe Obradovich Gimnasia La Plata Aktiv 101 / 126 40% 2 30.01.2028 -
Matvey Bardachev Zenit Aktiv 101 / 108 40% 1 30.01.2028 -
Juan Manuel Villalba Estudiantes Aktiv 115 / 123 40% 1 28.01.2028 -
Sergiu Perciun Torino Aktiv 106 / 114 40% 1 21.01.2028 -
André Fluminense Aktiv 124 / 134 40% 1 19.01.2028 -
Luighi Palmeiras Aktiv 106 / 105 40% 1 03.01.2028 -
Rayan Bournemouth Aktiv 145 / 154 40% 2 30.08.2027 -
Andrea Colpani Monza Aktiv 145 / 132 72% 1 30.08.2027 Befürworten
Sidiki Chérif Coventry City Aktiv 128 / 141 40% 1 30.08.2027 -
Miloš Luković RC Strasbourg Aktiv 126 / 131 40% 1 30.08.2027 -
Jeff Ekhator Juventus Aktiv 133 / 132 40% 1 29.08.2027 -
Michael Cooper Sheffield United Aktiv 134 / 138 40% 15 27.08.2027 -
Jakub Stolarczyk Tottenham Aktiv 146 / 133 40% 1 27.08.2027 -
Giorgi Mamardashvili Liverpool Aktiv 160 / 176 40% 1 27.08.2027 -
Damola Ajayi Tottenham Aktiv 114 / 126 40% 2 26.08.2027 -
Dilan Godoy Vélez Aktiv 110 / 107 40% 1 26.08.2027 -
Serge Daura Auckland City Aktiv 112 / 114 40% 1 26.08.2027 -
Keita Kosugi Eintracht Frankfurt Aktiv 125 / 127 40% 1 22.08.2027 -
Anthony Patterson Wrexham Aktiv 134 / 138 40% 16 21.08.2027 -
Marco Carnesecchi Atalanta Aktiv 160 / 175 40% 1 21.08.2027 -
Daniel Peretz Bayern Munich Aktiv 136 / 132 40% 1 21.08.2027 -
Alessandro Romano AS Roma Aktiv 108 / 109 40% 1 18.08.2027 -
Kike Pérez Venezia Aktiv 138 / 129 72% 1 09.08.2027 Befürworten
Lautaro Morales Lanús Aktiv 126 / 129 40% 2 07.08.2027 -
Alexis Fretes Libertad Aktiv 111 / 106 40% 1 07.08.2027 -
Matias Mancuso Inter Aktiv 108 / 123 40% 1 07.08.2027 -
Yusuf Akçiçek Al-Hilal Aktiv 139 / 153 40% 1 07.08.2027 -
Fellipe Jack Como Aktiv 117 / 108 40% 2 06.08.2027 -
Petik Manukyan Urartu Aktiv 100 / 98 40% 3 03.08.2027 -
Ander Astralaga Betis Aktiv 127 / 136 40% 1 02.07.2027 -
Josh Nichols Arsenal Aktiv 109 / 129 40% 1 21.06.2027 -
Radek Vítek Middlesbrough Aktiv 140 / 145 40% 6 28.01.2027 -
Dmytro Riznyk Shakhtar Aktiv 147 / 132 40% 7 22.01.2027 -
Dean Henderson Crystal Palace Aktiv 150 / 138 40% 1 11.01.2027 -
Christian Walton Ipswich Town Aktiv 137 / 119 40% 1 11.01.2027 -
Keisuke Osako Sanfrecce Hiroshima Aktiv 135 / 126 40% 1 29.08.2026 -
Yehvann Diouf OGC Nice Aktiv 141 / 145 40% 1 21.08.2026 -
Raúl Rangel Feyenoord Aktiv 125 / 128 40% 2 16.08.2026 -
Mateusz Kochalski Qarabag Aktiv 126 / 115 40% 1 16.08.2026 -
Leon Bailey Aston Villa Aktiv 139 / 133 40% 1 03.08.2026 -
Karl Hein Werder Bremen Aktiv 126 / 125 40% 1 02.08.2026 -